createdAt,value
2019-05-30T00:00:41.827Z,40.80
2019-05-30T00:03:15.448Z,40.80
2019-05-30T00:05:47.735Z,40.70
2019-05-30T00:08:19.218Z,40.70
2019-05-30T00:10:54.358Z,41.30
2019-05-30T00:13:29.692Z,40.60
2019-05-30T00:16:00.916Z,40.60
2019-05-30T00:18:31.921Z,41.00
2019-05-30T00:21:05.024Z,40.60
2019-05-30T00:23:36.806Z,40.50
2019-05-30T00:26:08.587Z,40.50
2019-05-30T00:28:41.449Z,40.50
2019-05-30T00:31:14.019Z,40.40
2019-05-30T00:33:44.964Z,40.70
2019-05-30T00:36:15.717Z,40.80
2019-05-30T00:38:46.444Z,40.60
2019-05-30T00:41:17.521Z,40.50
2019-05-30T00:43:48.437Z,40.40
2019-05-30T00:46:19.457Z,40.30
2019-05-30T00:48:50.305Z,40.30
2019-05-30T00:51:21.422Z,40.30
2019-05-30T00:53:53.845Z,40.30
2019-05-30T00:56:24.847Z,40.20
2019-05-30T00:58:57.177Z,40.30
2019-05-30T01:01:28.033Z,40.30
2019-05-30T01:03:59.001Z,40.20
2019-05-30T01:06:29.879Z,40.20
2019-05-30T01:09:01.174Z,40.20
2019-05-30T01:11:32.261Z,40.30
2019-05-30T01:14:03.735Z,40.30
2019-05-30T01:16:34.653Z,40.00
2019-05-30T01:19:05.502Z,40.30
2019-05-30T01:21:36.815Z,40.20
2019-05-30T01:24:07.839Z,40.20
2019-05-30T01:26:38.397Z,40.30
2019-05-30T01:29:09.465Z,40.30
2019-05-30T01:31:40.269Z,40.30
2019-05-30T01:34:11.200Z,40.30
2019-05-30T01:36:41.965Z,40.20
2019-05-30T01:39:12.553Z,40.20
2019-05-30T01:41:43.502Z,40.20
2019-05-30T01:44:14.465Z,40.20
2019-05-30T01:46:45.211Z,40.20
2019-05-30T01:49:16.040Z,40.30
2019-05-30T01:51:46.979Z,40.20
2019-05-30T01:54:18.005Z,40.20
2019-05-30T01:56:48.767Z,40.20
2019-05-30T01:59:19.762Z,39.90
2019-05-30T02:01:50.433Z,40.20
2019-05-30T02:04:21.170Z,40.20
2019-05-30T02:06:52.103Z,40.30
2019-05-30T02:09:22.603Z,40.30
2019-05-30T02:11:53.506Z,40.20
2019-05-30T02:14:24.319Z,40.20
2019-05-30T02:16:55.059Z,40.20
2019-05-30T02:19:25.968Z,40.20
2019-05-30T02:21:56.768Z,40.20
2019-05-30T02:24:27.545Z,40.50
2019-05-30T02:26:58.075Z,40.20
2019-05-30T02:29:28.897Z,40.10
2019-05-30T02:32:03.088Z,40.10
2019-05-30T02:34:35.602Z,40.00
2019-05-30T02:37:08.486Z,40.10
2019-05-30T02:39:39.743Z,40.10
2019-05-30T02:42:11.689Z,40.10
2019-05-30T02:44:42.850Z,40.20
2019-05-30T02:47:14.215Z,40.10
2019-05-30T02:49:45.445Z,40.10
2019-05-30T02:52:16.665Z,40.00
2019-05-30T02:54:47.637Z,40.20
2019-05-30T02:57:18.598Z,40.10
2019-05-30T02:59:49.446Z,40.10
2019-05-30T03:02:20.171Z,40.10
2019-05-30T03:04:51.002Z,40.10
2019-05-30T03:07:21.996Z,40.00
2019-05-30T03:09:52.854Z,40.20
2019-05-30T03:12:23.792Z,40.00
2019-05-30T03:14:54.630Z,40.00
2019-05-30T03:17:25.569Z,39.90
2019-05-30T03:19:56.522Z,40.30
2019-05-30T03:22:27.380Z,39.90
2019-05-30T03:24:58.072Z,39.90
2019-05-30T03:27:28.611Z,39.80
2019-05-30T03:29:59.421Z,39.80
2019-05-30T03:33:02.426Z,39.80
2019-05-30T03:35:06.125Z,39.80
2019-05-30T03:37:35.662Z,39.80
2019-05-30T03:40:07.060Z,39.80
2019-05-30T03:42:38.023Z,39.70
2019-05-30T03:45:11.275Z,39.70
2019-05-30T03:47:42.799Z,39.70
2019-05-30T03:50:16.991Z,39.70
2019-05-30T03:52:46.521Z,39.70
2019-05-30T03:55:17.549Z,39.70
2019-05-30T03:57:54.655Z,39.80
2019-05-30T04:00:41.931Z,39.70
2019-05-30T04:03:40.713Z,39.70
2019-05-30T04:06:20.678Z,39.70
2019-05-30T04:08:51.890Z,39.70
2019-05-30T04:11:26.541Z,39.70
2019-05-30T04:13:58.778Z,39.70
2019-05-30T04:16:29.572Z,39.60
2019-05-30T04:19:00.517Z,39.60
2019-05-30T04:21:31.368Z,39.60
2019-05-30T04:24:02.306Z,39.60
2019-05-30T04:26:33.370Z,39.60
2019-05-30T04:29:04.418Z,39.60
2019-05-30T04:31:35.131Z,39.60
2019-05-30T04:34:06.151Z,39.60
2019-05-30T04:36:37.030Z,39.60
2019-05-30T04:39:10.703Z,39.60
2019-05-30T04:41:41.335Z,39.60
2019-05-30T04:44:14.477Z,39.70
2019-05-30T04:46:45.142Z,39.60
2019-05-30T04:49:16.893Z,39.60
2019-05-30T04:51:48.472Z,39.60
2019-05-30T04:54:21.181Z,39.60
2019-05-30T04:56:51.788Z,39.70
2019-05-30T04:59:22.425Z,39.70
2019-05-30T05:01:53.244Z,39.80
2019-05-30T05:04:24.191Z,39.80
2019-05-30T05:06:55.194Z,40.00
2019-05-30T05:09:25.977Z,40.20
2019-05-30T05:11:56.770Z,39.90
2019-05-30T05:14:27.352Z,39.90
2019-05-30T05:16:58.167Z,40.10
2019-05-30T05:19:29.150Z,40.20
2019-05-30T05:21:59.747Z,40.00
2019-05-30T05:24:30.586Z,40.00
2019-05-30T05:27:01.216Z,39.90
2019-05-30T05:29:32.059Z,40.00
2019-05-30T05:32:03.086Z,39.80
2019-05-30T05:34:33.947Z,39.80
2019-05-30T05:37:04.807Z,39.80
2019-05-30T05:39:35.664Z,39.80
2019-05-30T05:42:06.620Z,39.80
2019-05-30T05:44:37.411Z,39.80
2019-05-30T05:47:08.231Z,39.80
2019-05-30T05:49:39.241Z,40.10
2019-05-30T05:52:12.054Z,39.80
2019-05-30T05:54:42.767Z,39.90
2019-05-30T05:57:13.414Z,39.90
2019-05-30T05:59:44.238Z,40.00
2019-05-30T06:02:15.200Z,40.20
2019-05-30T06:04:46.040Z,40.20
2019-05-30T06:07:16.800Z,39.20
2019-05-30T06:09:47.735Z,39.80
2019-05-30T06:12:19.644Z,39.80
2019-05-30T06:14:50.548Z,39.90
2019-05-30T06:17:21.347Z,40.40
2019-05-30T06:19:52.000Z,40.20
2019-05-30T06:22:23.592Z,40.30
2019-05-30T06:24:54.399Z,40.20
2019-05-30T06:27:26.163Z,40.00
2019-05-30T06:29:57.195Z,39.90
2019-05-30T06:32:28.895Z,40.10
2019-05-30T06:34:59.788Z,40.20
2019-05-30T06:37:30.609Z,40.20
2019-05-30T06:40:01.658Z,40.30
2019-05-30T06:42:32.869Z,40.30
2019-05-30T06:45:03.721Z,40.60
2019-05-30T06:47:34.656Z,40.70
2019-05-30T06:50:06.285Z,40.70
2019-05-30T06:52:37.285Z,40.70
2019-05-30T06:55:15.751Z,40.70
2019-05-30T06:57:46.939Z,41.00
2019-05-30T07:00:17.975Z,41.00
2019-05-30T07:02:48.671Z,41.00
2019-05-30T07:05:20.642Z,41.00
2019-05-30T07:07:52.847Z,41.00
2019-05-30T07:10:24.882Z,40.90
2019-05-30T07:12:55.712Z,41.10
2019-05-30T07:15:27.260Z,40.90
2019-05-30T07:17:58.465Z,40.70
2019-05-30T07:20:29.665Z,41.30
2019-05-30T07:23:00.654Z,42.00
2019-05-30T07:25:31.948Z,43.60
2019-05-30T07:28:02.852Z,44.50
2019-05-30T07:30:34.252Z,44.30
2019-05-30T07:33:04.981Z,43.20
2019-05-30T07:35:36.331Z,43.10
2019-05-30T07:38:07.195Z,44.50
2019-05-30T07:40:38.146Z,43.50
2019-05-30T07:43:08.951Z,43.30
2019-05-30T07:45:39.733Z,43.80
2019-05-30T07:48:10.471Z,44.10
2019-05-30T07:50:41.425Z,43.00
2019-05-30T07:53:12.612Z,42.10
2019-05-30T07:55:44.001Z,41.90
2019-05-30T07:58:15.777Z,41.20
2019-05-30T08:00:47.228Z,40.90
2019-05-30T08:03:18.884Z,40.10
2019-05-30T08:05:50.294Z,39.80
2019-05-30T08:08:21.376Z,40.10
2019-05-30T08:11:06.205Z,39.70
2019-05-30T08:13:25.199Z,40.60
2019-05-30T08:15:56.351Z,46.20
2019-05-30T08:18:27.623Z,45.00
2019-05-30T08:20:58.814Z,46.20
2019-05-30T08:23:30.137Z,44.90
2019-05-30T08:26:01.116Z,44.30
2019-05-30T08:28:32.235Z,43.50
2019-05-30T08:31:03.186Z,43.10
2019-05-30T08:33:35.498Z,43.30
2019-05-30T08:36:10.279Z,42.80
2019-05-30T08:38:43.943Z,42.20
2019-05-30T08:41:18.638Z,41.80
2019-05-30T08:43:53.299Z,41.50
2019-05-30T08:46:26.768Z,41.10
2019-05-30T08:49:01.803Z,40.90
2019-05-30T08:51:34.499Z,40.80
2019-05-30T08:54:05.579Z,40.50
2019-05-30T08:56:36.575Z,38.50
2019-05-30T08:59:07.501Z,38.70
2019-05-30T09:01:40.326Z,39.00
2019-05-30T09:04:10.986Z,39.20
2019-05-30T09:06:42.065Z,39.10
2019-05-30T09:09:13.212Z,38.90
2019-05-30T09:11:44.482Z,38.90
2019-05-30T09:14:15.563Z,39.00
2019-05-30T09:16:47.847Z,38.90
2019-05-30T09:19:18.976Z,38.90
2019-05-30T09:21:49.744Z,39.00
2019-05-30T09:24:20.694Z,38.90
2019-05-30T09:26:51.680Z,38.80
2019-05-30T09:29:22.577Z,38.80
2019-05-30T09:31:53.461Z,38.70
2019-05-30T09:34:24.338Z,38.70
2019-05-30T09:36:56.364Z,38.80
2019-05-30T09:39:29.711Z,38.80
2019-05-30T09:42:01.436Z,38.90
2019-05-30T09:44:32.025Z,39.50
2019-05-30T09:47:02.585Z,38.80
2019-05-30T09:49:33.100Z,38.80
2019-05-30T09:52:04.244Z,38.80
2019-05-30T09:54:35.447Z,38.70
2019-05-30T09:57:08.623Z,38.90
2019-05-30T09:59:39.511Z,38.90
2019-05-30T10:02:11.242Z,39.00
2019-05-30T10:04:43.920Z,39.60
2019-05-30T10:07:15.026Z,38.90
2019-05-30T10:09:47.119Z,37.40
2019-05-30T10:12:18.134Z,37.60
2019-05-30T10:14:49.186Z,36.10
2019-05-30T10:17:20.108Z,36.30
2019-05-30T10:19:51.019Z,37.30
2019-05-30T10:22:21.758Z,37.40
2019-05-30T10:24:54.680Z,38.60
2019-05-30T10:27:26.280Z,39.20
2019-05-30T10:29:59.332Z,39.70
2019-05-30T10:32:30.410Z,39.80
2019-05-30T10:35:04.325Z,39.40
2019-05-30T10:37:38.550Z,40.50
2019-05-30T10:40:14.319Z,40.70
2019-05-30T10:42:47.541Z,41.20
2019-05-30T10:45:19.151Z,41.20
2019-05-30T10:47:51.937Z,41.50
2019-05-30T10:50:24.158Z,41.70
2019-05-30T10:53:01.255Z,44.40
2019-05-30T10:55:37.196Z,48.30
2019-05-30T10:58:11.326Z,49.20
2019-05-30T11:00:57.738Z,59.50
2019-05-30T11:03:29.746Z,61.10
2019-05-30T11:07:01.140Z,49.80
2019-05-30T11:09:19.600Z,48.90
2019-05-30T11:11:50.995Z,44.60
2019-05-30T11:14:27.779Z,42.60
2019-05-30T11:16:59.480Z,41.80
2019-05-30T11:19:30.431Z,41.00
2019-05-30T11:22:01.919Z,40.60
2019-05-30T11:24:33.284Z,40.00
2019-05-30T11:27:04.564Z,39.20
2019-05-30T11:29:36.244Z,39.50
2019-05-30T11:32:08.359Z,37.00
2019-05-30T11:34:40.941Z,38.20
2019-05-30T11:37:18.721Z,37.90
2019-05-30T11:39:45.061Z,36.70
2019-05-30T11:42:16.794Z,36.30
2019-05-30T11:44:49.634Z,37.00
2019-05-30T11:47:21.507Z,35.80
2019-05-30T11:49:53.603Z,36.20
2019-05-30T11:52:25.253Z,37.10
2019-05-30T11:54:56.368Z,35.80
2019-05-30T11:57:27.788Z,35.00
2019-05-30T12:00:00.481Z,36.90
2019-05-30T12:02:32.221Z,34.60
2019-05-30T12:05:04.259Z,35.90
2019-05-30T12:07:37.087Z,33.70
2019-05-30T12:10:08.824Z,35.70
2019-05-30T12:12:42.535Z,34.80
2019-05-30T12:15:14.738Z,36.00
2019-05-30T12:17:45.364Z,36.40
2019-05-30T12:20:16.325Z,36.70
2019-05-30T12:22:47.536Z,37.00
2019-05-30T12:25:18.543Z,40.50
2019-05-30T12:27:49.785Z,39.60
2019-05-30T12:30:21.001Z,38.80
2019-05-30T12:32:52.428Z,38.80
2019-05-30T12:35:23.583Z,38.80
2019-05-30T12:37:59.122Z,39.10
2019-05-30T12:40:27.248Z,39.20
2019-05-30T12:42:59.832Z,39.20
2019-05-30T12:45:31.329Z,39.10
2019-05-30T12:48:09.387Z,39.60
2019-05-30T12:50:40.845Z,39.90
2019-05-30T12:53:12.473Z,39.90
2019-05-30T12:55:45.870Z,39.40
2019-05-30T12:58:16.784Z,39.40
2019-05-30T13:00:47.695Z,39.40
2019-05-30T13:03:18.534Z,39.40
2019-05-30T13:05:49.569Z,39.00
2019-05-30T13:08:22.353Z,39.00
2019-05-30T13:10:53.284Z,39.00
2019-05-30T13:13:23.955Z,39.90
2019-05-30T13:15:54.679Z,40.00
2019-05-30T13:18:25.628Z,45.60
2019-05-30T13:20:56.526Z,42.10
2019-05-30T13:23:27.369Z,41.70
2019-05-30T13:25:59.503Z,41.40
2019-05-30T13:28:30.545Z,42.00
2019-05-30T13:31:02.433Z,41.30
2019-05-30T13:33:33.383Z,41.20
2019-05-30T13:36:05.115Z,41.40
2019-05-30T13:38:36.118Z,41.30
2019-05-30T13:41:07.773Z,41.30
2019-05-30T13:43:38.972Z,41.50
2019-05-30T13:46:10.645Z,41.50
2019-05-30T13:48:43.132Z,41.70
2019-05-30T13:51:14.263Z,41.60
2019-05-30T13:53:45.759Z,41.60
2019-05-30T13:56:16.554Z,42.40
2019-05-30T13:58:47.404Z,43.70
2019-05-30T14:01:18.131Z,42.70
2019-05-30T14:03:48.792Z,42.20
2019-05-30T14:06:19.825Z,42.30
2019-05-30T14:08:50.788Z,42.30
2019-05-30T14:11:22.054Z,42.40
2019-05-30T14:13:54.433Z,42.50
2019-05-30T14:16:27.554Z,42.40
2019-05-30T14:19:05.348Z,42.50
2019-05-30T14:21:39.048Z,42.50
2019-05-30T14:24:11.630Z,42.50
2019-05-30T14:26:45.494Z,42.40
2019-05-30T14:29:20.142Z,42.30
2019-05-30T14:31:52.065Z,42.30
2019-05-30T14:34:23.845Z,42.30
2019-05-30T14:36:57.876Z,42.30
2019-05-30T14:39:29.546Z,42.40
2019-05-30T14:42:01.030Z,43.10
2019-05-30T14:44:32.823Z,42.80
2019-05-30T14:47:04.466Z,42.70
2019-05-30T14:49:35.920Z,42.70
2019-05-30T14:52:08.802Z,42.60
2019-05-30T14:54:45.004Z,42.60
2019-05-30T14:57:19.458Z,42.50
2019-05-30T14:59:54.487Z,42.50
2019-05-30T15:02:28.528Z,42.70
2019-05-30T15:05:05.248Z,42.50
2019-05-30T15:07:40.804Z,42.70
2019-05-30T15:10:14.874Z,42.70
2019-05-30T15:12:49.941Z,42.80
2019-05-30T15:15:23.953Z,43.20
2019-05-30T15:17:58.457Z,42.80
2019-05-30T15:20:32.220Z,42.70
2019-05-30T15:23:05.674Z,42.60
2019-05-30T15:25:40.421Z,42.80
2019-05-30T15:28:14.217Z,43.30
2019-05-30T15:30:47.309Z,42.70
2019-05-30T15:33:18.973Z,42.70
2019-05-30T15:35:50.553Z,42.70
2019-05-30T15:38:22.216Z,42.60
2019-05-30T15:40:53.849Z,42.80
2019-05-30T15:43:25.581Z,43.00
2019-05-30T15:45:57.019Z,43.50
2019-05-30T15:48:28.697Z,43.40
2019-05-30T15:51:00.400Z,43.20
2019-05-30T15:53:32.085Z,42.90
2019-05-30T15:56:03.819Z,42.90
2019-05-30T15:58:35.322Z,42.80
2019-05-30T16:01:07.254Z,42.80
2019-05-30T16:03:41.485Z,42.40
2019-05-30T16:06:14.432Z,42.80
2019-05-30T16:08:49.210Z,42.80
2019-05-30T16:11:21.290Z,43.30
2019-05-30T16:13:55.529Z,43.10
2019-05-30T16:16:39.765Z,42.90
2019-05-30T16:19:15.126Z,43.00
2019-05-30T16:21:34.679Z,43.00
2019-05-30T16:24:06.243Z,42.90
2019-05-30T16:26:43.012Z,43.00
2019-05-30T16:29:16.232Z,43.00
2019-05-30T16:31:51.169Z,43.10
2019-05-30T16:34:27.049Z,42.90
2019-05-30T16:37:04.307Z,43.00
2019-05-30T16:39:40.733Z,43.00
2019-05-30T16:42:18.310Z,43.00
2019-05-30T16:44:57.695Z,43.10
2019-05-30T16:47:39.089Z,42.90
2019-05-30T16:50:18.731Z,43.00
2019-05-30T16:52:58.400Z,43.60
2019-05-30T16:55:32.133Z,43.90
2019-05-30T16:58:08.381Z,43.90
2019-05-30T17:00:41.479Z,45.60
2019-05-30T17:03:13.094Z,47.90
2019-05-30T17:05:45.176Z,47.40
2019-05-30T17:08:18.068Z,47.20
2019-05-30T17:10:49.842Z,49.10
2019-05-30T17:13:21.713Z,49.50
2019-05-30T17:15:53.329Z,49.80
2019-05-30T17:18:26.373Z,49.40
2019-05-30T17:20:58.150Z,49.50
2019-05-30T17:23:29.664Z,52.30
2019-05-30T17:26:01.560Z,50.30
2019-05-30T17:28:33.243Z,50.50
2019-05-30T17:31:05.000Z,50.40
2019-05-30T17:33:36.717Z,48.20
2019-05-30T17:36:08.948Z,48.10
2019-05-30T17:38:42.459Z,47.50
2019-05-30T17:41:14.831Z,47.40
2019-05-30T17:43:47.246Z,46.60
2019-05-30T17:46:19.337Z,46.40
2019-05-30T17:48:50.993Z,45.90
2019-05-30T17:51:23.701Z,45.90
2019-05-30T17:53:55.330Z,46.30
2019-05-30T17:56:28.099Z,46.10
2019-05-30T17:59:00.001Z,46.00
2019-05-30T18:01:31.656Z,45.70
2019-05-30T18:04:03.347Z,45.60
2019-05-30T18:06:35.049Z,45.50
2019-05-30T18:09:07.840Z,45.40
2019-05-30T18:11:41.008Z,45.30
2019-05-30T18:14:12.674Z,45.10
2019-05-30T18:16:46.562Z,45.10
2019-05-30T18:19:19.533Z,45.30
2019-05-30T18:21:51.281Z,45.20
2019-05-30T18:24:23.507Z,45.20
2019-05-30T18:26:55.186Z,45.30
2019-05-30T18:29:30.196Z,45.10
2019-05-30T18:32:02.190Z,45.00
2019-05-30T18:34:34.235Z,44.90
2019-05-30T18:37:06.438Z,45.00
2019-05-30T18:39:38.420Z,45.40
2019-05-30T18:42:11.321Z,45.30
2019-05-30T18:44:42.285Z,45.10
2019-05-30T18:47:13.251Z,45.60
2019-05-30T18:49:44.573Z,44.90
2019-05-30T18:52:17.378Z,44.90
2019-05-30T18:54:48.507Z,44.80
2019-05-30T18:57:19.571Z,44.90
2019-05-30T18:59:50.472Z,45.50
2019-05-30T19:02:21.949Z,45.00
2019-05-30T19:04:54.050Z,44.90
2019-05-30T19:07:24.988Z,44.80
2019-05-30T19:09:56.093Z,44.70
2019-05-30T19:12:28.053Z,44.90
2019-05-30T19:14:59.067Z,45.00
2019-05-30T19:17:30.086Z,45.00
2019-05-30T19:20:00.894Z,45.00
2019-05-30T19:22:32.182Z,45.00
2019-05-30T19:25:03.483Z,45.00
2019-05-30T19:27:35.394Z,44.90
2019-05-30T19:30:07.353Z,45.00
2019-05-30T19:32:38.105Z,44.90
2019-05-30T19:35:09.011Z,44.90
2019-05-30T19:37:39.806Z,44.90
2019-05-30T19:40:11.047Z,44.90
2019-05-30T19:42:43.335Z,44.90
2019-05-30T19:45:14.353Z,44.90
2019-05-30T19:47:47.174Z,44.80
2019-05-30T19:50:18.996Z,45.30
2019-05-30T19:52:49.815Z,45.60
2019-05-30T19:55:26.575Z,45.80
2019-05-30T19:58:14.681Z,45.80
2019-05-30T20:00:58.658Z,46.00
2019-05-30T20:03:36.175Z,45.80
2019-05-30T20:06:10.060Z,45.80
2019-05-30T20:08:55.073Z,45.70
2019-05-30T20:11:23.284Z,45.90
2019-05-30T20:13:57.573Z,45.80
2019-05-30T20:16:34.028Z,45.70
2019-05-30T20:19:14.304Z,45.80
2019-05-30T20:21:47.822Z,45.90
2019-05-30T20:24:22.968Z,45.80
2019-05-30T20:26:56.601Z,46.00
2019-05-30T20:29:32.886Z,45.70
2019-05-30T20:32:06.361Z,47.60
2019-05-30T20:34:38.877Z,49.30
2019-05-30T20:37:13.314Z,49.30
2019-05-30T20:39:44.811Z,47.80
2019-05-30T20:42:19.179Z,47.20
2019-05-30T20:44:48.781Z,47.20
2019-05-30T20:47:20.782Z,47.00
2019-05-30T20:49:51.756Z,46.80
2019-05-30T20:52:30.067Z,46.70
2019-05-30T20:55:02.096Z,46.80
2019-05-30T20:57:38.346Z,46.90
2019-05-30T21:00:16.381Z,46.70
2019-05-30T21:02:50.956Z,46.80
2019-05-30T21:05:22.040Z,46.60
2019-05-30T21:07:52.742Z,46.60
2019-05-30T21:10:23.831Z,46.90
2019-05-30T21:12:55.038Z,46.80
2019-05-30T21:15:26.090Z,46.70
2019-05-30T21:17:57.076Z,46.70
2019-05-30T21:20:28.264Z,46.70
2019-05-30T21:22:59.211Z,46.70
2019-05-30T21:25:30.133Z,46.50
2019-05-30T21:28:00.875Z,46.60
2019-05-30T21:30:39.502Z,46.40
2019-05-30T21:33:11.240Z,46.50
2019-05-30T21:35:45.960Z,46.50
2019-05-30T21:38:18.082Z,46.50
2019-05-30T21:40:51.319Z,46.40
2019-05-30T21:43:23.271Z,46.40
2019-05-30T21:45:54.198Z,46.50
2019-05-30T21:48:25.387Z,46.40
2019-05-30T21:50:56.426Z,46.30
2019-05-30T21:53:27.483Z,46.50
2019-05-30T21:55:58.208Z,46.50
2019-05-30T21:58:28.979Z,46.50
2019-05-30T22:01:31.486Z,46.50
2019-05-30T22:04:02.405Z,46.40
2019-05-30T22:06:33.416Z,46.30
2019-05-30T22:09:06.718Z,46.20
2019-05-30T22:11:37.620Z,46.20
2019-05-30T22:14:08.412Z,46.20
2019-05-30T22:16:39.415Z,46.10
2019-05-30T22:19:10.483Z,46.10
2019-05-30T22:21:41.982Z,46.20
2019-05-30T22:24:13.098Z,46.20
2019-05-30T22:26:44.440Z,46.20
2019-05-30T22:29:15.267Z,46.20
2019-05-30T22:31:46.648Z,46.20
2019-05-30T22:34:18.058Z,46.20
2019-05-30T22:36:49.265Z,46.10
2019-05-30T22:39:20.119Z,46.10
2019-05-30T22:41:52.085Z,46.20
2019-05-30T22:44:23.142Z,46.20
2019-05-30T22:46:54.075Z,46.10
2019-05-30T22:49:24.688Z,46.20
2019-05-30T22:51:55.297Z,46.10
2019-05-30T22:54:26.028Z,46.10
2019-05-30T22:56:56.808Z,46.10
2019-05-30T22:59:27.797Z,46.10
2019-05-30T23:01:58.842Z,46.10
2019-05-30T23:04:29.671Z,46.10
2019-05-30T23:07:00.840Z,46.10
2019-05-30T23:09:31.866Z,46.10
2019-05-30T23:12:02.993Z,46.10
2019-05-30T23:14:34.230Z,46.30
2019-05-30T23:17:05.366Z,46.10
2019-05-30T23:19:36.496Z,46.10
2019-05-30T23:22:07.496Z,46.20
2019-05-30T23:24:38.791Z,46.10
2019-05-30T23:27:09.955Z,46.10
2019-05-30T23:29:41.070Z,46.20
2019-05-30T23:32:12.172Z,46.20
2019-05-30T23:34:43.159Z,46.20
2019-05-30T23:37:14.253Z,46.20
2019-05-30T23:39:45.273Z,46.20
2019-05-30T23:42:16.180Z,46.30
2019-05-30T23:44:47.297Z,46.30
2019-05-30T23:47:18.318Z,46.20
2019-05-30T23:49:49.904Z,46.20
2019-05-30T23:52:21.244Z,46.30
2019-05-30T23:54:52.243Z,46.20
2019-05-30T23:57:23.701Z,46.10
2019-05-30T23:59:54.824Z,46.20
